createdAt,value
2022-07-31T00:00:35.251Z,3.13
2022-07-31T00:03:03.107Z,3.10
2022-07-31T00:05:31.153Z,3.57
2022-07-31T00:07:59.339Z,2.87
2022-07-31T00:10:28.836Z,3.30
2022-07-31T00:12:56.668Z,3.20
2022-07-31T00:15:24.548Z,2.87
2022-07-31T00:17:52.632Z,3.03
2022-07-31T00:20:20.658Z,3.23
2022-07-31T00:22:50.547Z,3.40
2022-07-31T00:25:20.008Z,3.50
2022-07-31T00:27:49.206Z,3.47
2022-07-31T00:30:17.797Z,3.77
2022-07-31T00:32:46.066Z,4.00
2022-07-31T00:35:14.969Z,3.50
2022-07-31T00:37:44.252Z,4.00
2022-07-31T00:40:15.477Z,3.07
2022-07-31T00:42:43.654Z,3.53
2022-07-31T00:45:13.395Z,4.00
2022-07-31T00:47:41.855Z,3.07
2022-07-31T00:50:11.091Z,3.23
2022-07-31T00:52:39.779Z,3.87
2022-07-31T00:55:08.983Z,2.90
2022-07-31T00:57:37.190Z,3.47
2022-07-31T01:00:06.753Z,3.20
2022-07-31T01:02:38.065Z,2.70
2022-07-31T01:05:14.286Z,2.87
2022-07-31T01:07:42.104Z,3.20
2022-07-31T01:10:12.108Z,2.93
2022-07-31T01:12:49.763Z,3.00
2022-07-31T01:15:21.558Z,3.17
2022-07-31T01:17:51.793Z,3.40
2022-07-31T01:20:19.963Z,3.30
2022-07-31T01:23:12.002Z,3.43
2022-07-31T01:25:47.796Z,3.73
2022-07-31T01:28:30.173Z,3.83
2022-07-31T01:31:25.570Z,3.57
2022-07-31T01:34:00.544Z,3.23
2022-07-31T01:36:34.683Z,3.10
2022-07-31T01:39:03.379Z,2.90
2022-07-31T01:41:41.791Z,2.73
2022-07-31T01:44:14.030Z,3.00
2022-07-31T01:46:45.622Z,3.80
2022-07-31T01:49:15.012Z,3.37
2022-07-31T01:51:45.187Z,2.65
2022-07-31T01:54:15.428Z,3.03
2022-07-31T01:56:44.572Z,2.70
2022-07-31T01:59:17.089Z,2.40
2022-07-31T02:01:51.440Z,2.50
2022-07-31T02:04:20.956Z,2.63
2022-07-31T02:06:50.536Z,2.30
2022-07-31T02:09:20.258Z,2.23
2022-07-31T02:11:54.502Z,2.30
2022-07-31T02:14:24.010Z,2.70
2022-07-31T02:16:53.440Z,2.50
2022-07-31T02:19:22.441Z,2.13
2022-07-31T02:21:51.441Z,2.30
2022-07-31T02:24:19.710Z,2.50
2022-07-31T02:26:48.600Z,2.30
2022-07-31T02:29:19.414Z,2.23
2022-07-31T02:32:03.252Z,2.70
2022-07-31T02:34:33.560Z,2.67
2022-07-31T02:37:02.499Z,2.13
2022-07-31T02:39:33.050Z,2.57
2022-07-31T02:42:02.303Z,2.73
2022-07-31T02:44:34.532Z,1.77
2022-07-31T02:47:05.140Z,2.60
2022-07-31T02:49:35.261Z,2.20
2022-07-31T02:52:04.749Z,2.40
2022-07-31T02:54:35.090Z,2.23
2022-07-31T02:57:03.515Z,2.23
2022-07-31T02:59:32.029Z,2.40
2022-07-31T03:02:00.065Z,2.40
2022-07-31T03:04:29.817Z,3.47
2022-07-31T03:06:59.156Z,3.07
2022-07-31T03:09:29.753Z,3.20
2022-07-31T03:11:57.949Z,2.90
2022-07-31T03:14:33.440Z,2.90
2022-07-31T03:17:02.410Z,3.00
2022-07-31T03:19:30.424Z,2.63
2022-07-31T03:22:01.379Z,2.73
2022-07-31T03:24:29.726Z,2.63
2022-07-31T03:26:57.665Z,2.90
2022-07-31T03:29:36.109Z,2.10
2022-07-31T03:32:10.822Z,2.30
2022-07-31T03:34:39.037Z,2.80
2022-07-31T03:37:08.330Z,2.10
2022-07-31T03:39:36.100Z,2.00
2022-07-31T03:42:04.713Z,1.77
2022-07-31T03:44:33.731Z,2.17
2022-07-31T03:47:01.962Z,2.13
2022-07-31T03:49:30.956Z,1.97
2022-07-31T03:51:59.227Z,2.07
2022-07-31T03:54:28.671Z,2.13
2022-07-31T03:56:58.600Z,1.60
2022-07-31T03:59:28.226Z,2.10
2022-07-31T04:01:59.001Z,2.00
2022-07-31T04:04:26.869Z,2.30
2022-07-31T04:06:54.773Z,2.00
2022-07-31T04:09:22.653Z,2.40
2022-07-31T04:11:51.829Z,2.03
2022-07-31T04:14:19.665Z,2.40
2022-07-31T04:16:47.516Z,1.70
2022-07-31T04:19:15.346Z,2.33
2022-07-31T04:21:43.192Z,2.40
2022-07-31T04:24:11.578Z,1.90
2022-07-31T04:26:39.454Z,2.43
2022-07-31T04:29:08.616Z,1.93
2022-07-31T04:31:36.449Z,2.13
2022-07-31T04:34:04.295Z,2.00
2022-07-31T04:36:32.355Z,2.10
2022-07-31T04:39:00.727Z,2.10
2022-07-31T04:41:28.996Z,1.90
2022-07-31T04:43:58.359Z,1.73
2022-07-31T04:46:27.993Z,1.90
2022-07-31T04:48:55.908Z,1.97
2022-07-31T04:51:24.781Z,2.07
2022-07-31T04:53:53.206Z,2.27
2022-07-31T04:56:42.033Z,2.10
2022-07-31T04:59:12.909Z,2.03
2022-07-31T05:01:43.528Z,2.30
2022-07-31T05:04:12.080Z,2.30
2022-07-31T05:06:41.814Z,2.40
2022-07-31T05:09:18.303Z,2.67
2022-07-31T05:11:48.175Z,2.40
2022-07-31T05:14:17.634Z,2.77
2022-07-31T05:16:47.234Z,2.90
2022-07-31T05:19:15.172Z,2.23
2022-07-31T05:21:51.429Z,2.10
2022-07-31T05:24:33.414Z,2.47
2022-07-31T05:27:10.222Z,2.60
2022-07-31T05:29:38.133Z,2.20
2022-07-31T05:32:07.937Z,2.90
2022-07-31T05:34:35.734Z,2.87
2022-07-31T05:37:03.677Z,2.53
2022-07-31T05:39:31.796Z,2.17
2022-07-31T05:41:59.645Z,2.00
2022-07-31T05:44:27.507Z,2.33
2022-07-31T05:49:26.544Z,2.10
2022-07-31T05:51:55.002Z,2.30
2022-07-31T05:54:23.045Z,2.50
2022-07-31T05:56:50.836Z,2.17
2022-07-31T05:59:18.739Z,2.17
2022-07-31T06:01:46.710Z,2.10
2022-07-31T06:04:14.655Z,2.40
2022-07-31T06:06:43.835Z,2.27
2022-07-31T06:09:11.754Z,1.97
2022-07-31T06:11:40.050Z,1.97
2022-07-31T06:14:08.180Z,2.43
2022-07-31T06:16:36.035Z,1.93
2022-07-31T06:19:03.901Z,2.00
2022-07-31T06:21:31.708Z,2.43
2022-07-31T06:24:00.925Z,2.07
2022-07-31T06:26:30.273Z,1.90
2022-07-31T06:28:58.073Z,2.13
2022-07-31T06:31:28.803Z,2.30
2022-07-31T06:33:56.657Z,2.70
2022-07-31T06:36:24.484Z,2.10
2022-07-31T06:38:52.326Z,2.30
2022-07-31T06:41:39.333Z,1.87
2022-07-31T06:44:07.218Z,2.57
2022-07-31T06:46:35.111Z,2.40
2022-07-31T06:49:08.272Z,2.30
2022-07-31T06:51:37.019Z,2.27
2022-07-31T06:54:07.079Z,2.17
2022-07-31T06:56:37.950Z,2.43
2022-07-31T06:59:07.017Z,2.33
2022-07-31T07:01:35.580Z,2.63
2022-07-31T07:04:03.765Z,2.17
2022-07-31T07:06:31.716Z,2.10
2022-07-31T07:08:59.588Z,1.90
2022-07-31T07:11:27.423Z,2.10
2022-07-31T07:13:56.638Z,2.00
2022-07-31T07:16:24.580Z,2.23
2022-07-31T07:18:52.974Z,2.07
2022-07-31T07:21:23.833Z,1.80
2022-07-31T07:23:51.636Z,2.10
2022-07-31T07:26:19.795Z,2.03
2022-07-31T07:28:47.621Z,2.13
2022-07-31T07:31:16.813Z,1.80
2022-07-31T07:33:45.515Z,2.10
2022-07-31T07:36:23.666Z,1.87
2022-07-31T07:38:53.426Z,2.37
2022-07-31T07:41:21.586Z,1.53
2022-07-31T07:43:52.366Z,1.87
2022-07-31T07:46:22.332Z,1.93
2022-07-31T07:48:51.567Z,2.10
2022-07-31T07:51:19.707Z,2.10
2022-07-31T07:53:47.667Z,2.10
2022-07-31T07:56:15.681Z,2.30
2022-07-31T07:58:43.519Z,2.00
2022-07-31T08:01:11.422Z,1.93
2022-07-31T08:03:49.213Z,2.13
2022-07-31T08:06:19.848Z,2.30
2022-07-31T08:08:47.763Z,2.03
2022-07-31T08:11:17.833Z,2.10
2022-07-31T08:13:50.550Z,2.10
2022-07-31T08:16:20.137Z,2.63
2022-07-31T08:18:49.532Z,2.10
2022-07-31T08:21:17.599Z,1.87
2022-07-31T08:23:45.468Z,2.20
2022-07-31T08:26:14.000Z,2.50
2022-07-31T08:28:49.950Z,2.07
2022-07-31T08:31:21.950Z,2.47
2022-07-31T08:33:51.141Z,2.57
2022-07-31T08:36:18.973Z,2.40
2022-07-31T08:38:47.163Z,2.40
2022-07-31T08:41:15.606Z,2.77
2022-07-31T08:44:00.066Z,2.23
2022-07-31T08:46:34.220Z,2.00
2022-07-31T08:49:04.652Z,2.50
2022-07-31T08:51:51.551Z,2.57
2022-07-31T08:54:21.164Z,1.70
2022-07-31T08:56:52.268Z,2.50
2022-07-31T08:59:20.801Z,2.37
2022-07-31T09:01:48.665Z,2.30
2022-07-31T09:04:17.997Z,2.10
2022-07-31T09:06:45.799Z,2.27
2022-07-31T09:09:13.898Z,2.00
2022-07-31T09:11:48.347Z,2.10
2022-07-31T09:14:26.053Z,2.47
2022-07-31T09:16:54.561Z,1.90
2022-07-31T09:19:51.063Z,2.40
2022-07-31T09:22:21.764Z,2.00
2022-07-31T09:24:49.577Z,2.10
2022-07-31T09:27:18.250Z,2.50
2022-07-31T09:29:49.044Z,1.90
2022-07-31T09:32:18.590Z,2.07
2022-07-31T09:34:49.212Z,1.80
2022-07-31T09:37:18.852Z,1.60
2022-07-31T09:39:52.531Z,1.57
2022-07-31T09:42:21.325Z,2.10
2022-07-31T09:44:50.533Z,1.53
2022-07-31T09:47:23.336Z,1.50
2022-07-31T09:49:56.644Z,1.93
2022-07-31T09:52:25.053Z,1.43
2022-07-31T09:55:02.802Z,1.40
2022-07-31T09:57:53.958Z,1.67
2022-07-31T10:00:22.392Z,1.83
2022-07-31T10:02:51.908Z,1.50
2022-07-31T10:05:23.720Z,1.63
2022-07-31T10:07:52.415Z,1.57
2022-07-31T10:10:22.442Z,1.33
2022-07-31T10:12:53.829Z,1.80
2022-07-31T10:15:23.915Z,1.77
2022-07-31T10:17:53.381Z,1.60
2022-07-31T10:20:25.910Z,1.70
2022-07-31T10:22:57.076Z,1.70
2022-07-31T10:25:27.028Z,1.87
2022-07-31T10:27:57.101Z,1.70
2022-07-31T10:30:28.194Z,1.23
2022-07-31T10:32:58.499Z,1.63
2022-07-31T10:35:28.745Z,1.50
2022-07-31T10:38:04.661Z,1.43
2022-07-31T10:40:40.964Z,1.93
2022-07-31T10:43:20.705Z,1.30
2022-07-31T10:45:50.499Z,1.43
2022-07-31T10:48:19.374Z,1.70
2022-07-31T10:50:49.298Z,1.97
2022-07-31T10:53:18.619Z,1.50
2022-07-31T10:55:46.617Z,1.33
2022-07-31T10:58:15.896Z,1.63
2022-07-31T11:00:44.228Z,1.47
2022-07-31T11:03:19.779Z,1.50
2022-07-31T11:06:02.060Z,1.30
2022-07-31T11:08:42.291Z,1.90
2022-07-31T11:11:10.743Z,1.40
2022-07-31T11:13:49.504Z,1.70
2022-07-31T11:16:18.284Z,1.60
2022-07-31T11:18:57.247Z,1.77
2022-07-31T11:21:41.593Z,1.30
2022-07-31T11:24:16.960Z,1.53
2022-07-31T11:26:50.576Z,1.27
2022-07-31T11:30:01.487Z,1.30
2022-07-31T11:32:17.625Z,1.60
2022-07-31T11:34:55.025Z,1.40
2022-07-31T11:37:26.533Z,1.37
2022-07-31T11:40:03.479Z,1.20
2022-07-31T11:42:36.111Z,1.23
2022-07-31T11:45:11.037Z,1.50
2022-07-31T11:48:11.807Z,1.67
2022-07-31T11:50:30.595Z,1.13
2022-07-31T11:53:07.198Z,1.23
2022-07-31T11:55:45.620Z,1.60
2022-07-31T11:58:13.489Z,1.30
2022-07-31T12:00:50.669Z,1.40
2022-07-31T12:03:19.986Z,1.43
2022-07-31T12:05:49.118Z,1.60
2022-07-31T12:08:19.109Z,1.43
2022-07-31T12:10:47.405Z,1.53
2022-07-31T12:13:17.425Z,1.60
2022-07-31T12:15:56.115Z,1.53
2022-07-31T12:18:24.343Z,1.37
2022-07-31T12:20:55.369Z,1.43
2022-07-31T12:23:40.652Z,1.50
2022-07-31T12:26:12.788Z,1.23
2022-07-31T12:28:40.713Z,1.90
2022-07-31T12:31:09.002Z,1.57
2022-07-31T12:33:44.235Z,1.73
2022-07-31T12:36:16.120Z,1.57
2022-07-31T12:38:48.306Z,1.37
2022-07-31T12:41:17.371Z,1.70
2022-07-31T12:43:52.056Z,1.73
2022-07-31T12:46:24.096Z,1.60
2022-07-31T12:48:52.276Z,1.57
2022-07-31T12:51:44.168Z,1.53
2022-07-31T12:54:10.908Z,1.70
2022-07-31T12:56:40.405Z,1.60
2022-07-31T12:59:09.385Z,1.50
2022-07-31T13:01:37.626Z,1.63
2022-07-31T13:04:07.598Z,1.70
2022-07-31T13:06:37.400Z,1.63
2022-07-31T13:09:05.549Z,1.23
2022-07-31T13:11:45.571Z,1.17
2022-07-31T13:14:14.965Z,1.53
2022-07-31T13:16:42.842Z,1.50
2022-07-31T13:19:10.938Z,1.53
2022-07-31T13:21:49.245Z,1.10
2022-07-31T13:24:18.851Z,1.30
2022-07-31T13:26:48.840Z,1.13
2022-07-31T13:29:17.131Z,1.00
2022-07-31T13:31:45.286Z,1.40
2022-07-31T13:34:13.248Z,1.27
2022-07-31T13:36:41.073Z,1.20
2022-07-31T13:39:09.389Z,1.63
2022-07-31T13:41:39.194Z,1.40
2022-07-31T13:44:09.669Z,1.37
2022-07-31T13:46:37.900Z,1.30
2022-07-31T13:49:08.481Z,1.83
2022-07-31T13:51:37.052Z,1.40
2022-07-31T13:54:05.277Z,1.70
2022-07-31T13:56:40.950Z,1.30
2022-07-31T13:59:13.172Z,1.40
2022-07-31T14:02:03.702Z,1.20
2022-07-31T14:04:31.307Z,1.20
2022-07-31T14:07:01.342Z,1.30
2022-07-31T14:09:31.390Z,1.60
2022-07-31T14:11:59.177Z,1.60
2022-07-31T14:14:33.208Z,1.20
2022-07-31T14:17:01.022Z,1.40
2022-07-31T14:19:29.032Z,1.50
2022-07-31T14:21:57.492Z,1.80
2022-07-31T14:24:26.515Z,1.90
2022-07-31T14:26:54.810Z,2.03
2022-07-31T14:29:22.706Z,1.37
2022-07-31T14:31:51.959Z,1.40
2022-07-31T14:34:19.931Z,1.30
2022-07-31T14:36:47.794Z,1.20
2022-07-31T14:39:15.626Z,1.23
2022-07-31T14:41:43.720Z,1.50
2022-07-31T14:44:11.596Z,1.37
2022-07-31T14:46:39.484Z,1.40
2022-07-31T14:49:09.068Z,1.37
2022-07-31T14:51:37.037Z,1.40
2022-07-31T14:54:05.135Z,1.50
2022-07-31T14:56:59.812Z,1.30
2022-07-31T14:59:21.046Z,2.23
2022-07-31T15:01:48.936Z,1.90
2022-07-31T15:04:18.161Z,1.50
2022-07-31T15:06:55.970Z,1.50
2022-07-31T15:09:34.115Z,1.37
2022-07-31T15:12:02.227Z,1.20
2022-07-31T15:14:30.256Z,1.93
2022-07-31T15:16:58.105Z,1.40
2022-07-31T15:19:27.417Z,1.40
2022-07-31T15:22:15.805Z,1.47
2022-07-31T15:24:48.203Z,1.30
2022-07-31T15:27:16.597Z,1.77
2022-07-31T15:30:05.424Z,1.70
2022-07-31T15:32:32.363Z,1.40
2022-07-31T15:35:01.604Z,1.73
2022-07-31T15:37:30.055Z,1.70
2022-07-31T15:40:02.025Z,1.50
2022-07-31T15:42:31.846Z,2.17
2022-07-31T15:44:59.708Z,1.50
2022-07-31T15:47:27.574Z,1.73
2022-07-31T15:49:55.463Z,1.33
2022-07-31T15:52:24.886Z,1.30
2022-07-31T15:54:52.940Z,1.30
2022-07-31T15:57:21.484Z,1.23
2022-07-31T15:59:49.661Z,1.40
2022-07-31T16:02:17.627Z,1.50
2022-07-31T16:04:53.097Z,2.07
2022-07-31T16:08:30.839Z,3.50
2022-07-31T16:10:15.218Z,1.37
2022-07-31T16:12:44.148Z,4.10
2022-07-31T16:15:12.569Z,1.50
2022-07-31T16:17:40.881Z,1.40
2022-07-31T16:20:10.777Z,1.60
2022-07-31T16:22:41.346Z,1.50
2022-07-31T16:25:10.777Z,2.13
2022-07-31T16:27:39.571Z,1.73
2022-07-31T16:30:08.811Z,1.37
2022-07-31T16:32:36.740Z,1.50
2022-07-31T16:35:06.125Z,1.50
2022-07-31T16:37:49.878Z,1.73
2022-07-31T16:40:30.759Z,1.50
2022-07-31T16:43:01.837Z,1.40
2022-07-31T16:45:30.695Z,1.40
2022-07-31T16:47:58.674Z,1.10
2022-07-31T16:50:26.853Z,1.77
2022-07-31T16:52:55.324Z,1.40
2022-07-31T16:55:59.621Z,1.43
2022-07-31T16:58:13.675Z,1.53
2022-07-31T17:00:41.775Z,1.60
2022-07-31T17:04:00.894Z,1.07
2022-07-31T17:05:58.117Z,1.27
2022-07-31T17:08:25.960Z,1.43
2022-07-31T17:10:55.186Z,1.40
2022-07-31T17:13:23.517Z,1.30
2022-07-31T17:15:51.363Z,1.63
2022-07-31T17:18:24.702Z,1.43
2022-07-31T17:20:52.813Z,1.50
2022-07-31T17:23:43.247Z,1.70
2022-07-31T17:26:21.182Z,1.50
2022-07-31T17:28:49.539Z,1.50
2022-07-31T17:31:17.724Z,1.10
2022-07-31T17:33:58.390Z,1.10
2022-07-31T17:36:27.934Z,1.60
2022-07-31T17:38:55.886Z,1.37
2022-07-31T17:41:26.091Z,1.47
2022-07-31T17:43:54.497Z,1.60
2022-07-31T17:46:34.273Z,1.40
2022-07-31T17:49:05.619Z,1.50
2022-07-31T17:51:33.550Z,1.07
2022-07-31T17:54:01.538Z,1.20
2022-07-31T17:56:30.740Z,1.40
2022-07-31T17:59:04.301Z,1.30
2022-07-31T18:01:33.417Z,1.27
2022-07-31T18:04:01.797Z,1.27
2022-07-31T18:06:29.625Z,0.87
2022-07-31T18:08:57.866Z,1.40
2022-07-31T18:11:26.017Z,1.70
2022-07-31T18:14:00.900Z,1.27
2022-07-31T18:16:31.591Z,1.70
2022-07-31T18:18:59.434Z,1.27
2022-07-31T18:21:27.326Z,1.30
2022-07-31T18:23:55.170Z,1.50
2022-07-31T18:26:23.472Z,1.57
2022-07-31T18:28:51.451Z,1.07
2022-07-31T18:31:32.398Z,1.43
2022-07-31T18:34:03.938Z,1.30
2022-07-31T18:36:32.069Z,1.30
2022-07-31T18:39:00.067Z,1.40
2022-07-31T18:41:28.243Z,1.40
2022-07-31T18:43:56.192Z,1.40
2022-07-31T18:46:25.563Z,1.33
2022-07-31T18:48:55.989Z,1.40
2022-07-31T18:51:24.687Z,1.43
2022-07-31T18:53:54.412Z,1.40
2022-07-31T18:56:23.674Z,1.70
2022-07-31T18:58:52.018Z,2.00
2022-07-31T19:01:20.078Z,2.20
2022-07-31T19:03:49.398Z,1.90
2022-07-31T19:06:17.322Z,1.70
2022-07-31T19:08:45.999Z,1.53
2022-07-31T19:11:13.965Z,1.60
2022-07-31T19:13:41.861Z,1.80
2022-07-31T19:16:09.721Z,1.60
2022-07-31T19:18:40.189Z,2.00
2022-07-31T19:21:21.269Z,2.40
2022-07-31T19:23:51.734Z,1.80
2022-07-31T19:26:19.653Z,2.17
2022-07-31T19:28:47.706Z,1.83
2022-07-31T19:31:15.584Z,1.67
2022-07-31T19:33:43.428Z,1.90
2022-07-31T19:36:13.918Z,2.10
2022-07-31T19:38:44.227Z,2.00
2022-07-31T19:41:13.614Z,2.00
2022-07-31T19:43:41.492Z,1.90
2022-07-31T19:46:12.372Z,2.97
2022-07-31T19:48:42.013Z,2.77
2022-07-31T19:51:10.157Z,3.33
2022-07-31T19:53:39.574Z,3.60
2022-07-31T19:56:07.944Z,2.33
2022-07-31T19:58:37.069Z,2.47
2022-07-31T20:01:06.277Z,2.20
2022-07-31T20:03:34.290Z,2.33
2022-07-31T20:06:02.715Z,2.10
2022-07-31T20:08:33.041Z,2.10
2022-07-31T20:11:04.454Z,1.93
2022-07-31T20:13:32.990Z,2.20
2022-07-31T20:16:01.502Z,2.30
2022-07-31T20:18:29.961Z,2.10
2022-07-31T20:21:00.114Z,2.00
2022-07-31T20:23:28.615Z,2.00
2022-07-31T20:25:56.420Z,1.77
2022-07-31T20:28:25.597Z,1.90
2022-07-31T20:30:53.706Z,2.10
2022-07-31T20:33:22.347Z,2.17
2022-07-31T20:35:50.688Z,2.70
2022-07-31T20:38:18.889Z,2.00
2022-07-31T20:40:53.535Z,1.70
2022-07-31T20:43:22.198Z,2.60
2022-07-31T20:45:52.100Z,1.67
2022-07-31T20:48:21.793Z,1.60
2022-07-31T20:50:49.658Z,2.00
2022-07-31T20:53:17.514Z,2.10
2022-07-31T20:55:47.442Z,2.20
2022-07-31T20:58:15.638Z,1.83
2022-07-31T21:00:43.560Z,1.87
2022-07-31T21:03:12.684Z,2.10
2022-07-31T21:05:40.520Z,2.60
2022-07-31T21:08:08.605Z,2.53
2022-07-31T21:10:36.500Z,2.10
2022-07-31T21:13:04.646Z,2.00
2022-07-31T21:15:42.745Z,1.97
2022-07-31T21:18:14.429Z,2.07
2022-07-31T21:20:51.127Z,1.70
2022-07-31T21:23:22.202Z,1.67
2022-07-31T21:25:50.700Z,1.90
2022-07-31T21:28:19.329Z,1.70
2022-07-31T21:30:47.676Z,2.10
2022-07-31T21:33:17.811Z,2.20
2022-07-31T21:35:46.436Z,1.97
2022-07-31T21:38:15.664Z,1.43
2022-07-31T21:40:44.741Z,1.40
2022-07-31T21:43:16.950Z,2.13
2022-07-31T21:45:57.338Z,1.87
2022-07-31T21:48:32.126Z,2.30
2022-07-31T21:51:01.295Z,1.80
2022-07-31T21:53:29.270Z,2.20
2022-07-31T21:56:01.635Z,2.37
2022-07-31T21:58:29.528Z,1.90
2022-07-31T22:00:57.494Z,1.80
2022-07-31T22:03:25.624Z,2.00
2022-07-31T22:06:12.289Z,1.87
2022-07-31T22:08:40.139Z,1.70
2022-07-31T22:11:08.122Z,1.60
2022-07-31T22:13:36.018Z,1.70
2022-07-31T22:16:04.302Z,1.80
2022-07-31T22:18:34.024Z,1.60
2022-07-31T22:21:05.578Z,1.60
2022-07-31T22:23:34.439Z,1.90
2022-07-31T22:26:02.881Z,2.13
2022-07-31T22:28:31.170Z,1.47
2022-07-31T22:30:59.609Z,1.73
2022-07-31T22:33:28.460Z,2.00
2022-07-31T22:36:00.366Z,2.13
2022-07-31T22:38:31.139Z,1.87
2022-07-31T22:40:59.573Z,1.90
2022-07-31T22:44:12.689Z,2.10
2022-07-31T22:46:18.117Z,1.60
2022-07-31T22:48:46.856Z,1.90
2022-07-31T22:51:15.753Z,1.80
2022-07-31T22:53:48.689Z,1.80
2022-07-31T22:56:17.224Z,2.20
2022-07-31T23:01:20.436Z,1.80
2022-07-31T23:03:48.289Z,1.90
2022-07-31T23:06:30.823Z,1.60
2022-07-31T23:09:01.585Z,1.60
2022-07-31T23:11:29.443Z,1.77
2022-07-31T23:13:57.339Z,1.80
2022-07-31T23:16:25.252Z,2.20
2022-07-31T23:18:53.146Z,1.50
2022-07-31T23:21:21.427Z,1.50
2022-07-31T23:23:49.719Z,1.63
2022-07-31T23:26:20.073Z,1.97
2022-07-31T23:28:49.063Z,1.60
2022-07-31T23:31:16.999Z,1.40
2022-07-31T23:33:45.195Z,1.60
2022-07-31T23:36:13.144Z,1.70
2022-07-31T23:38:41.709Z,1.57
2022-07-31T23:41:10.077Z,1.70
2022-07-31T23:43:38.750Z,1.50
2022-07-31T23:46:06.596Z,1.80
2022-07-31T23:48:36.212Z,1.60
2022-07-31T23:51:07.358Z,1.50
2022-07-31T23:53:35.167Z,1.70
2022-07-31T23:56:02.963Z,1.63
2022-07-31T23:58:32.409Z,1.70
